sensor_id;sensor_type;location;lat;lon;timestamp;P1;durP1;ratioP1;P2;durP2;ratioP2
47103;SDS011;32853;52.164;5.400;2023-11-25T00:00:34;8.02;;;1.27;;
47103;SDS011;32853;52.164;5.400;2023-11-25T00:05:56;7.53;;;0.82;;
47103;SDS011;32853;52.164;5.400;2023-11-25T00:08:36;13.90;;;1.50;;
47103;SDS011;32853;52.164;5.400;2023-11-25T00:14:31;16.55;;;1.20;;
47103;SDS011;32853;52.164;5.400;2023-11-25T00:17:24;12.85;;;1.10;;
47103;SDS011;32853;52.164;5.400;2023-11-25T00:20:05;10.52;;;0.50;;
47103;SDS011;32853;52.164;5.400;2023-11-25T00:22:50;16.60;;;0.90;;
47103;SDS011;32853;52.164;5.400;2023-11-25T00:25:26;5.35;;;1.02;;
47103;SDS011;32853;52.164;5.400;2023-11-25T00:27:57;3.80;;;0.82;;
47103;SDS011;32853;52.164;5.400;2023-11-25T00:33:37;8.15;;;0.88;;
47103;SDS011;32853;52.164;5.400;2023-11-25T00:36:22;7.20;;;0.70;;
47103;SDS011;32853;52.164;5.400;2023-11-25T00:42:04;4.60;;;0.50;;
47103;SDS011;32853;52.164;5.400;2023-11-25T00:44:33;19.85;;;0.73;;
47103;SDS011;32853;52.164;5.400;2023-11-25T00:47:03;9.50;;;1.40;;
47103;SDS011;32853;52.164;5.400;2023-11-25T00:49:38;7.70;;;1.10;;
47103;SDS011;32853;52.164;5.400;2023-11-25T00:52:21;3.53;;;0.38;;
47103;SDS011;32853;52.164;5.400;2023-11-25T00:57:55;9.50;;;1.05;;
47103;SDS011;32853;52.164;5.400;2023-11-25T01:00:25;15.02;;;0.60;;
47103;SDS011;32853;52.164;5.400;2023-11-25T01:02:52;11.00;;;1.00;;
47103;SDS011;32853;52.164;5.400;2023-11-25T01:05:20;7.82;;;0.75;;
47103;SDS011;32853;52.164;5.400;2023-11-25T01:14:39;11.55;;;0.80;;
47103;SDS011;32853;52.164;5.400;2023-11-25T01:17:22;12.68;;;0.95;;
47103;SDS011;32853;52.164;5.400;2023-11-25T01:29:24;6.93;;;0.93;;
47103;SDS011;32853;52.164;5.400;2023-11-25T01:31:57;2.40;;;0.70;;
47103;SDS011;32853;52.164;5.400;2023-11-25T01:34:30;4.43;;;0.75;;
47103;SDS011;32853;52.164;5.400;2023-11-25T01:37:03;4.15;;;0.60;;
47103;SDS011;32853;52.164;5.400;2023-11-25T01:39:50;7.75;;;0.68;;
47103;SDS011;32853;52.164;5.400;2023-11-25T01:45:23;6.43;;;0.73;;
47103;SDS011;32853;52.164;5.400;2023-11-25T02:03:59;12.32;;;1.00;;
47103;SDS011;32853;52.164;5.400;2023-11-25T02:10:05;4.65;;;0.77;;
47103;SDS011;32853;52.164;5.400;2023-11-25T02:12:50;14.57;;;0.73;;
47103;SDS011;32853;52.164;5.400;2023-11-25T02:15:19;7.63;;;0.60;;
47103;SDS011;32853;52.164;5.400;2023-11-25T02:17:51;7.20;;;0.93;;
47103;SDS011;32853;52.164;5.400;2023-11-25T02:20:37;6.38;;;0.82;;
47103;SDS011;32853;52.164;5.400;2023-11-25T02:23:20;10.97;;;0.90;;
47103;SDS011;32853;52.164;5.400;2023-11-25T02:39:44;5.15;;;1.02;;
47103;SDS011;32853;52.164;5.400;2023-11-25T02:42:16;10.23;;;0.68;;
47103;SDS011;32853;52.164;5.400;2023-11-25T02:51:15;11.80;;;0.60;;
47103;SDS011;32853;52.164;5.400;2023-11-25T02:57:00;5.63;;;0.65;;
47103;SDS011;32853;52.164;5.400;2023-11-25T02:59:47;6.18;;;0.65;;
47103;SDS011;32853;52.164;5.400;2023-11-25T03:14:29;15.15;;;0.93;;
47103;SDS011;32853;52.164;5.400;2023-11-25T03:20:00;19.08;;;0.77;;
47103;SDS011;32853;52.164;5.400;2023-11-25T03:29:18;15.68;;;1.20;;
47103;SDS011;32853;52.164;5.400;2023-11-25T03:31:46;8.00;;;0.85;;
47103;SDS011;32853;52.164;5.400;2023-11-25T03:34:19;8.57;;;0.95;;
47103;SDS011;32853;52.164;5.400;2023-11-25T03:37:07;13.93;;;1.05;;
47103;SDS011;32853;52.164;5.400;2023-11-25T03:40:02;3.08;;;0.73;;
47103;SDS011;32853;52.164;5.400;2023-11-25T03:42:52;12.60;;;1.02;;
47103;SDS011;32853;52.164;5.400;2023-11-25T03:45:27;8.65;;;0.60;;
47103;SDS011;32853;52.164;5.400;2023-11-25T03:48:03;15.23;;;1.10;;
47103;SDS011;32853;52.164;5.400;2023-11-25T03:50:44;12.82;;;1.45;;
47103;SDS011;32853;52.164;5.400;2023-11-25T04:03:04;19.33;;;1.45;;
47103;SDS011;32853;52.164;5.400;2023-11-25T04:09:10;13.55;;;0.75;;
47103;SDS011;32853;52.164;5.400;2023-11-25T04:18:08;12.05;;;1.13;;
47103;SDS011;32853;52.164;5.400;2023-11-25T04:23:34;5.68;;;0.47;;
47103;SDS011;32853;52.164;5.400;2023-11-25T04:31:44;2.63;;;0.20;;
47103;SDS011;32853;52.164;5.400;2023-11-25T04:37:07;5.35;;;0.20;;
47103;SDS011;32853;52.164;5.400;2023-11-25T04:39:54;2.65;;;0.10;;
47103;SDS011;32853;52.164;5.400;2023-11-25T04:42:35;1.77;;;0.47;;
47103;SDS011;32853;52.164;5.400;2023-11-25T04:45:21;0.38;;;0.10;;
47103;SDS011;32853;52.164;5.400;2023-11-25T04:48:07;1.17;;;0.13;;
47103;SDS011;32853;52.164;5.400;2023-11-25T04:50:43;3.35;;;0.20;;
47103;SDS011;32853;52.164;5.400;2023-11-25T04:53:16;1.15;;;0.15;;
47103;SDS011;32853;52.164;5.400;2023-11-25T04:59:00;1.77;;;0.40;;
47103;SDS011;32853;52.164;5.400;2023-11-25T05:04:34;1.75;;;0.40;;
47103;SDS011;32853;52.164;5.400;2023-11-25T05:10:18;7.82;;;0.35;;
47103;SDS011;32853;52.164;5.400;2023-11-25T05:32:28;3.35;;;0.32;;
47103;SDS011;32853;52.164;5.400;2023-11-25T05:54:57;5.72;;;0.45;;
47103;SDS011;32853;52.164;5.400;2023-11-25T05:57:37;1.88;;;0.32;;
47103;SDS011;32853;52.164;5.400;2023-11-25T06:19:25;2.70;;;0.28;;
47103;SDS011;32853;52.164;5.400;2023-11-25T06:29:01;3.17;;;0.30;;
47103;SDS011;32853;52.164;5.400;2023-11-25T06:35:13;3.30;;;0.30;;
47103;SDS011;32853;52.164;5.400;2023-11-25T06:40:45;2.90;;;0.28;;
47103;SDS011;32853;52.164;5.400;2023-11-25T06:43:17;5.95;;;0.38;;
47103;SDS011;32853;52.164;5.400;2023-11-25T06:45:43;1.30;;;0.43;;
47103;SDS011;32853;52.164;5.400;2023-11-25T06:48:11;2.75;;;0.63;;
47103;SDS011;32853;52.164;5.400;2023-11-25T06:50:38;3.20;;;0.40;;
47103;SDS011;32853;52.164;5.400;2023-11-25T06:53:06;1.92;;;0.28;;
47103;SDS011;32853;52.164;5.400;2023-11-25T06:55:42;4.43;;;0.40;;
47103;SDS011;32853;52.164;5.400;2023-11-25T06:58:23;5.45;;;0.65;;
47103;SDS011;32853;52.164;5.400;2023-11-25T07:09:56;1.17;;;0.10;;
47103;SDS011;32853;52.164;5.400;2023-11-25T07:12:30;2.92;;;0.25;;
47103;SDS011;32853;52.164;5.400;2023-11-25T07:15:06;1.45;;;0.25;;
47103;SDS011;32853;52.164;5.400;2023-11-25T07:17:36;1.35;;;0.10;;
47103;SDS011;32853;52.164;5.400;2023-11-25T07:20:10;4.05;;;0.22;;
47103;SDS011;32853;52.164;5.400;2023-11-25T07:26:14;2.83;;;0.32;;
47103;SDS011;32853;52.164;5.400;2023-11-25T07:28:42;4.45;;;0.85;;
47103;SDS011;32853;52.164;5.400;2023-11-25T07:31:11;1.75;;;0.30;;
47103;SDS011;32853;52.164;5.400;2023-11-25T07:40:32;1.30;;;0.22;;
47103;SDS011;32853;52.164;5.400;2023-11-25T07:55:43;3.80;;;0.30;;
47103;SDS011;32853;52.164;5.400;2023-11-25T08:03:56;4.20;;;0.17;;
47103;SDS011;32853;52.164;5.400;2023-11-25T08:18:15;1.58;;;0.40;;
47103;SDS011;32853;52.164;5.400;2023-11-25T08:20:49;3.00;;;0.20;;
47103;SDS011;32853;52.164;5.400;2023-11-25T08:26:23;2.75;;;0.10;;
47103;SDS011;32853;52.164;5.400;2023-11-25T08:29:06;0.25;;;0.10;;
47103;SDS011;32853;52.164;5.400;2023-11-25T08:31:41;0.00;;;0.00;;
47103;SDS011;32853;52.164;5.400;2023-11-25T08:37:00;1.08;;;0.22;;
47103;SDS011;32853;52.164;5.400;2023-11-25T08:42:02;0.88;;;0.22;;
47103;SDS011;32853;52.164;5.400;2023-11-25T08:44:39;4.75;;;0.43;;
47103;SDS011;32853;52.164;5.400;2023-11-25T08:53:52;0.75;;;0.30;;
47103;SDS011;32853;52.164;5.400;2023-11-25T09:06:54;2.60;;;0.30;;
47103;SDS011;32853;52.164;5.400;2023-11-25T09:12:40;19.35;;;1.05;;
47103;SDS011;32853;52.164;5.400;2023-11-25T09:18:15;8.40;;;0.95;;
47103;SDS011;32853;52.164;5.400;2023-11-25T09:20:43;6.93;;;0.50;;
47103;SDS011;32853;52.164;5.400;2023-11-25T09:23:34;4.93;;;0.52;;
47103;SDS011;32853;52.164;5.400;2023-11-25T09:26:07;8.57;;;0.47;;
47103;SDS011;32853;52.164;5.400;2023-11-25T09:28:32;11.23;;;0.60;;
47103;SDS011;32853;52.164;5.400;2023-11-25T09:30:58;6.93;;;0.77;;
47103;SDS011;32853;52.164;5.400;2023-11-25T09:33:25;6.07;;;0.45;;
47103;SDS011;32853;52.164;5.400;2023-11-25T09:35:52;7.45;;;0.82;;
47103;SDS011;32853;52.164;5.400;2023-11-25T09:38:18;5.85;;;0.47;;
47103;SDS011;32853;52.164;5.400;2023-11-25T09:40:46;6.07;;;0.40;;
47103;SDS011;32853;52.164;5.400;2023-11-25T09:43:12;8.70;;;0.68;;
47103;SDS011;32853;52.164;5.400;2023-11-25T09:45:39;5.00;;;0.60;;
47103;SDS011;32853;52.164;5.400;2023-11-25T09:48:19;5.50;;;0.70;;
47103;SDS011;32853;52.164;5.400;2023-11-25T09:50:52;10.10;;;0.45;;
47103;SDS011;32853;52.164;5.400;2023-11-25T09:53:25;8.05;;;1.02;;
47103;SDS011;32853;52.164;5.400;2023-11-25T09:58:37;11.98;;;1.00;;
47103;SDS011;32853;52.164;5.400;2023-11-25T10:01:03;10.25;;;1.23;;
47103;SDS011;32853;52.164;5.400;2023-11-25T10:03:34;7.55;;;0.88;;
47103;SDS011;32853;52.164;5.400;2023-11-25T10:06:02;6.45;;;0.35;;
47103;SDS011;32853;52.164;5.400;2023-11-25T10:08:27;2.03;;;0.40;;
47103;SDS011;32853;52.164;5.400;2023-11-25T10:13:48;4.88;;;1.00;;
47103;SDS011;32853;52.164;5.400;2023-11-25T10:16:28;13.65;;;1.70;;
47103;SDS011;32853;52.164;5.400;2023-11-25T10:18:54;5.75;;;0.73;;
47103;SDS011;32853;52.164;5.400;2023-11-25T10:21:29;5.97;;;0.82;;
47103;SDS011;32853;52.164;5.400;2023-11-25T10:23:55;7.28;;;0.82;;
47103;SDS011;32853;52.164;5.400;2023-11-25T10:26:31;9.00;;;0.70;;
47103;SDS011;32853;52.164;5.400;2023-11-25T10:28:56;1.02;;;0.30;;
47103;SDS011;32853;52.164;5.400;2023-11-25T10:31:26;9.55;;;0.40;;
47103;SDS011;32853;52.164;5.400;2023-11-25T10:33:55;2.75;;;1.33;;
47103;SDS011;32853;52.164;5.400;2023-11-25T10:36:21;6.35;;;0.30;;
47103;SDS011;32853;52.164;5.400;2023-11-25T10:38:46;5.85;;;1.05;;
47103;SDS011;32853;52.164;5.400;2023-11-25T10:41:13;2.60;;;0.20;;
47103;SDS011;32853;52.164;5.400;2023-11-25T10:43:41;3.58;;;0.45;;
47103;SDS011;32853;52.164;5.400;2023-11-25T10:46:09;2.80;;;0.40;;
47103;SDS011;32853;52.164;5.400;2023-11-25T10:48:36;5.25;;;0.40;;
47103;SDS011;32853;52.164;5.400;2023-11-25T10:51:03;6.00;;;0.38;;
47103;SDS011;32853;52.164;5.400;2023-11-25T10:53:34;3.00;;;0.57;;
47103;SDS011;32853;52.164;5.400;2023-11-25T10:56:02;6.75;;;0.70;;
47103;SDS011;32853;52.164;5.400;2023-11-25T10:58:29;2.40;;;0.68;;
47103;SDS011;32853;52.164;5.400;2023-11-25T11:00:58;10.70;;;0.80;;
47103;SDS011;32853;52.164;5.400;2023-11-25T11:03:29;5.35;;;0.47;;
47103;SDS011;32853;52.164;5.400;2023-11-25T11:06:10;6.70;;;0.38;;
47103;SDS011;32853;52.164;5.400;2023-11-25T11:08:44;7.03;;;0.47;;
47103;SDS011;32853;52.164;5.400;2023-11-25T11:11:16;4.10;;;0.45;;
47103;SDS011;32853;52.164;5.400;2023-11-25T11:14:12;6.47;;;0.40;;
47103;SDS011;32853;52.164;5.400;2023-11-25T11:19:06;3.40;;;0.60;;
47103;SDS011;32853;52.164;5.400;2023-11-25T11:21:37;8.27;;;1.23;;
47103;SDS011;32853;52.164;5.400;2023-11-25T11:24:08;5.05;;;0.70;;
47103;SDS011;32853;52.164;5.400;2023-11-25T11:29:57;8.70;;;0.50;;
47103;SDS011;32853;52.164;5.400;2023-11-25T11:32:46;3.40;;;0.47;;
47103;SDS011;32853;52.164;5.400;2023-11-25T11:35:18;13.32;;;1.05;;
47103;SDS011;32853;52.164;5.400;2023-11-25T11:37:48;11.55;;;1.02;;
47103;SDS011;32853;52.164;5.400;2023-11-25T11:40:14;3.38;;;1.17;;
47103;SDS011;32853;52.164;5.400;2023-11-25T11:42:48;7.22;;;0.68;;
47103;SDS011;32853;52.164;5.400;2023-11-25T11:45:14;1.42;;;0.45;;
47103;SDS011;32853;52.164;5.400;2023-11-25T11:50:40;4.93;;;0.88;;
47103;SDS011;32853;52.164;5.400;2023-11-25T11:53:15;3.88;;;0.70;;
47103;SDS011;32853;52.164;5.400;2023-11-25T11:55:54;7.97;;;0.70;;
47103;SDS011;32853;52.164;5.400;2023-11-25T12:03:27;13.52;;;0.70;;
47103;SDS011;32853;52.164;5.400;2023-11-25T12:05:58;3.63;;;0.43;;
47103;SDS011;32853;52.164;5.400;2023-11-25T12:08:24;4.40;;;0.60;;
47103;SDS011;32853;52.164;5.400;2023-11-25T12:10:52;15.23;;;0.65;;
47103;SDS011;32853;52.164;5.400;2023-11-25T12:13:28;8.45;;;0.80;;
47103;SDS011;32853;52.164;5.400;2023-11-25T12:15:56;6.60;;;1.13;;
47103;SDS011;32853;52.164;5.400;2023-11-25T12:18:30;7.32;;;0.60;;
47103;SDS011;32853;52.164;5.400;2023-11-25T12:21:03;10.90;;;0.80;;
47103;SDS011;32853;52.164;5.400;2023-11-25T12:23:33;4.03;;;0.35;;
47103;SDS011;32853;52.164;5.400;2023-11-25T12:26:04;7.35;;;0.85;;
47103;SDS011;32853;52.164;5.400;2023-11-25T12:28:38;10.32;;;0.70;;
47103;SDS011;32853;52.164;5.400;2023-11-25T12:31:10;7.90;;;0.90;;
47103;SDS011;32853;52.164;5.400;2023-11-25T12:33:36;5.50;;;0.65;;
47103;SDS011;32853;52.164;5.400;2023-11-25T12:36:03;6.28;;;0.95;;
47103;SDS011;32853;52.164;5.400;2023-11-25T12:38:31;7.50;;;0.50;;
47103;SDS011;32853;52.164;5.400;2023-11-25T12:41:04;15.95;;;0.73;;
47103;SDS011;32853;52.164;5.400;2023-11-25T12:44:01;14.20;;;1.73;;
47103;SDS011;32853;52.164;5.400;2023-11-25T12:46:58;6.75;;;0.57;;
47103;SDS011;32853;52.164;5.400;2023-11-25T12:49:26;6.10;;;0.60;;
47103;SDS011;32853;52.164;5.400;2023-11-25T12:52:00;2.00;;;0.40;;
47103;SDS011;32853;52.164;5.400;2023-11-25T12:54:41;7.47;;;0.70;;
47103;SDS011;32853;52.164;5.400;2023-11-25T12:57:09;5.85;;;1.00;;
47103;SDS011;32853;52.164;5.400;2023-11-25T12:59:36;11.68;;;0.73;;
47103;SDS011;32853;52.164;5.400;2023-11-25T13:02:07;12.23;;;0.85;;
47103;SDS011;32853;52.164;5.400;2023-11-25T13:07:34;16.23;;;1.23;;
47103;SDS011;32853;52.164;5.400;2023-11-25T13:10:03;4.35;;;1.15;;
47103;SDS011;32853;52.164;5.400;2023-11-25T13:15:28;7.28;;;0.77;;
47103;SDS011;32853;52.164;5.400;2023-11-25T13:17:56;11.82;;;0.82;;
47103;SDS011;32853;52.164;5.400;2023-11-25T13:23:26;16.77;;;2.85;;
47103;SDS011;32853;52.164;5.400;2023-11-25T13:25:52;11.20;;;0.77;;
47103;SDS011;32853;52.164;5.400;2023-11-25T13:28:24;10.68;;;0.80;;
47103;SDS011;32853;52.164;5.400;2023-11-25T13:30:51;5.60;;;0.55;;
47103;SDS011;32853;52.164;5.400;2023-11-25T13:33:19;10.63;;;1.23;;
47103;SDS011;32853;52.164;5.400;2023-11-25T13:35:45;8.27;;;0.70;;
47103;SDS011;32853;52.164;5.400;2023-11-25T13:38:13;3.28;;;0.75;;
47103;SDS011;32853;52.164;5.400;2023-11-25T13:40:40;3.33;;;0.73;;
47103;SDS011;32853;52.164;5.400;2023-11-25T13:43:08;10.65;;;0.88;;
47103;SDS011;32853;52.164;5.400;2023-11-25T13:45:42;6.05;;;0.95;;
47103;SDS011;32853;52.164;5.400;2023-11-25T13:48:13;6.55;;;0.70;;
47103;SDS011;32853;52.164;5.400;2023-11-25T13:50:44;9.50;;;1.40;;
47103;SDS011;32853;52.164;5.400;2023-11-25T13:53:13;8.30;;;0.98;;
47103;SDS011;32853;52.164;5.400;2023-11-25T13:55:41;8.75;;;0.65;;
47103;SDS011;32853;52.164;5.400;2023-11-25T13:58:11;6.28;;;0.68;;
47103;SDS011;32853;52.164;5.400;2023-11-25T14:00:54;2.35;;;0.60;;
47103;SDS011;32853;52.164;5.400;2023-11-25T14:03:20;6.65;;;1.10;;
47103;SDS011;32853;52.164;5.400;2023-11-25T14:05:46;4.20;;;0.80;;
47103;SDS011;32853;52.164;5.400;2023-11-25T14:08:11;18.70;;;1.65;;
47103;SDS011;32853;52.164;5.400;2023-11-25T14:10:39;4.18;;;0.65;;
47103;SDS011;32853;52.164;5.400;2023-11-25T14:13:09;4.35;;;0.70;;
47103;SDS011;32853;52.164;5.400;2023-11-25T14:15:35;3.88;;;0.60;;
47103;SDS011;32853;52.164;5.400;2023-11-25T14:18:01;5.75;;;1.10;;
47103;SDS011;32853;52.164;5.400;2023-11-25T14:20:27;6.70;;;0.70;;
47103;SDS011;32853;52.164;5.400;2023-11-25T14:22:53;3.13;;;0.68;;
47103;SDS011;32853;52.164;5.400;2023-11-25T14:25:21;13.40;;;1.05;;
47103;SDS011;32853;52.164;5.400;2023-11-25T14:27:47;15.35;;;0.98;;
47103;SDS011;32853;52.164;5.400;2023-11-25T14:32:43;22.90;;;0.90;;
47103;SDS011;32853;52.164;5.400;2023-11-25T14:35:14;17.50;;;1.20;;
47103;SDS011;32853;52.164;5.400;2023-11-25T14:37:40;14.57;;;1.08;;
47103;SDS011;32853;52.164;5.400;2023-11-25T14:40:09;4.82;;;0.85;;
47103;SDS011;32853;52.164;5.400;2023-11-25T14:42:36;10.30;;;0.95;;
47103;SDS011;32853;52.164;5.400;2023-11-25T14:45:13;6.00;;;0.90;;
47103;SDS011;32853;52.164;5.400;2023-11-25T14:47:41;13.07;;;1.15;;
47103;SDS011;32853;52.164;5.400;2023-11-25T14:52:38;9.52;;;1.02;;
47103;SDS011;32853;52.164;5.400;2023-11-25T14:55:03;22.17;;;1.95;;
47103;SDS011;32853;52.164;5.400;2023-11-25T14:57:31;11.57;;;1.10;;
47103;SDS011;32853;52.164;5.400;2023-11-25T14:59:56;8.70;;;0.63;;
47103;SDS011;32853;52.164;5.400;2023-11-25T15:02:22;8.18;;;1.42;;
47103;SDS011;32853;52.164;5.400;2023-11-25T15:04:47;7.10;;;0.52;;
47103;SDS011;32853;52.164;5.400;2023-11-25T15:07:13;11.35;;;1.38;;
47103;SDS011;32853;52.164;5.400;2023-11-25T15:09:46;5.80;;;0.82;;
47103;SDS011;32853;52.164;5.400;2023-11-25T15:12:13;5.22;;;0.73;;
47103;SDS011;32853;52.164;5.400;2023-11-25T15:14:41;13.93;;;1.20;;
47103;SDS011;32853;52.164;5.400;2023-11-25T15:17:07;14.00;;;1.02;;
47103;SDS011;32853;52.164;5.400;2023-11-25T15:19:32;13.18;;;1.00;;
47103;SDS011;32853;52.164;5.400;2023-11-25T15:22:10;10.88;;;0.80;;
47103;SDS011;32853;52.164;5.400;2023-11-25T15:24:36;5.57;;;0.90;;
47103;SDS011;32853;52.164;5.400;2023-11-25T15:27:05;13.02;;;1.23;;
47103;SDS011;32853;52.164;5.400;2023-11-25T15:29:35;11.18;;;0.80;;
47103;SDS011;32853;52.164;5.400;2023-11-25T15:32:04;15.23;;;1.42;;
47103;SDS011;32853;52.164;5.400;2023-11-25T15:34:45;10.20;;;1.40;;
47103;SDS011;32853;52.164;5.400;2023-11-25T15:37:10;9.38;;;1.05;;
47103;SDS011;32853;52.164;5.400;2023-11-25T15:39:36;13.10;;;1.25;;
47103;SDS011;32853;52.164;5.400;2023-11-25T15:42:01;14.10;;;1.55;;
47103;SDS011;32853;52.164;5.400;2023-11-25T15:44:29;15.32;;;0.82;;
47103;SDS011;32853;52.164;5.400;2023-11-25T15:46:58;5.03;;;0.90;;
47103;SDS011;32853;52.164;5.400;2023-11-25T15:49:24;4.40;;;0.95;;
47103;SDS011;32853;52.164;5.400;2023-11-25T15:51:53;19.13;;;2.38;;
47103;SDS011;32853;52.164;5.400;2023-11-25T15:54:22;14.07;;;0.85;;
47103;SDS011;32853;52.164;5.400;2023-11-25T15:56:54;21.10;;;1.38;;
47103;SDS011;32853;52.164;5.400;2023-11-25T15:59:25;8.13;;;1.33;;
47103;SDS011;32853;52.164;5.400;2023-11-25T16:01:58;8.50;;;0.98;;
47103;SDS011;32853;52.164;5.400;2023-11-25T16:04:25;9.50;;;0.93;;
47103;SDS011;32853;52.164;5.400;2023-11-25T16:09:25;9.68;;;1.45;;
47103;SDS011;32853;52.164;5.400;2023-11-25T16:12:00;11.02;;;1.05;;
47103;SDS011;32853;52.164;5.400;2023-11-25T16:14:26;3.65;;;0.70;;
47103;SDS011;32853;52.164;5.400;2023-11-25T16:16:57;10.02;;;1.17;;
47103;SDS011;32853;52.164;5.400;2023-11-25T16:19:22;15.75;;;1.88;;
47103;SDS011;32853;52.164;5.400;2023-11-25T16:21:48;7.93;;;2.03;;
47103;SDS011;32853;52.164;5.400;2023-11-25T16:24:17;21.60;;;2.05;;
47103;SDS011;32853;52.164;5.400;2023-11-25T16:26:42;4.78;;;1.10;;
47103;SDS011;32853;52.164;5.400;2023-11-25T16:29:08;10.57;;;1.00;;
47103;SDS011;32853;52.164;5.400;2023-11-25T16:31:33;13.30;;;1.52;;
47103;SDS011;32853;52.164;5.400;2023-11-25T16:33:59;10.45;;;1.25;;
47103;SDS011;32853;52.164;5.400;2023-11-25T16:36:38;6.80;;;1.67;;
47103;SDS011;32853;52.164;5.400;2023-11-25T16:39:07;13.15;;;1.75;;
47103;SDS011;32853;52.164;5.400;2023-11-25T16:41:34;15.82;;;3.67;;
47103;SDS011;32853;52.164;5.400;2023-11-25T16:43:59;10.60;;;1.50;;
47103;SDS011;32853;52.164;5.400;2023-11-25T16:46:25;19.38;;;1.52;;
47103;SDS011;32853;52.164;5.400;2023-11-25T16:48:57;13.30;;;1.55;;
47103;SDS011;32853;52.164;5.400;2023-11-25T16:51:22;13.25;;;1.15;;
47103;SDS011;32853;52.164;5.400;2023-11-25T16:53:47;13.55;;;1.60;;
47103;SDS011;32853;52.164;5.400;2023-11-25T16:56:19;6.00;;;1.30;;
47103;SDS011;32853;52.164;5.400;2023-11-25T16:58:45;11.05;;;1.10;;
47103;SDS011;32853;52.164;5.400;2023-11-25T17:01:16;8.32;;;1.20;;
47103;SDS011;32853;52.164;5.400;2023-11-25T17:06:36;4.32;;;1.40;;
47103;SDS011;32853;52.164;5.400;2023-11-25T17:09:12;8.88;;;1.40;;
47103;SDS011;32853;52.164;5.400;2023-11-25T17:14:24;9.95;;;1.25;;
47103;SDS011;32853;52.164;5.400;2023-11-25T17:16:57;14.15;;;1.13;;
47103;SDS011;32853;52.164;5.400;2023-11-25T17:19:23;8.50;;;1.45;;
47103;SDS011;32853;52.164;5.400;2023-11-25T17:21:49;15.80;;;1.75;;
47103;SDS011;32853;52.164;5.400;2023-11-25T17:24:15;12.10;;;0.90;;
47103;SDS011;32853;52.164;5.400;2023-11-25T17:26:45;12.65;;;1.63;;
47103;SDS011;32853;52.164;5.400;2023-11-25T17:29:11;12.98;;;1.45;;
47103;SDS011;32853;52.164;5.400;2023-11-25T17:31:37;13.15;;;2.28;;
47103;SDS011;32853;52.164;5.400;2023-11-25T17:34:02;13.20;;;2.17;;
47103;SDS011;32853;52.164;5.400;2023-11-25T17:36:28;16.10;;;2.08;;
47103;SDS011;32853;52.164;5.400;2023-11-25T17:38:54;11.60;;;1.40;;
47103;SDS011;32853;52.164;5.400;2023-11-25T17:41:32;15.27;;;1.63;;
47103;SDS011;32853;52.164;5.400;2023-11-25T17:43:59;10.85;;;1.50;;
47103;SDS011;32853;52.164;5.400;2023-11-25T17:46:25;8.13;;;1.40;;
47103;SDS011;32853;52.164;5.400;2023-11-25T17:48:51;14.75;;;2.17;;
47103;SDS011;32853;52.164;5.400;2023-11-25T17:51:25;8.27;;;2.30;;
47103;SDS011;32853;52.164;5.400;2023-11-25T17:53:57;16.95;;;3.13;;
47103;SDS011;32853;52.164;5.400;2023-11-25T17:56:23;7.85;;;1.35;;
47103;SDS011;32853;52.164;5.400;2023-11-25T17:58:49;8.88;;;2.50;;
47103;SDS011;32853;52.164;5.400;2023-11-25T18:01:15;8.10;;;1.80;;
47103;SDS011;32853;52.164;5.400;2023-11-25T18:03:44;8.15;;;1.73;;
47103;SDS011;32853;52.164;5.400;2023-11-25T18:06:10;11.73;;;1.90;;
47103;SDS011;32853;52.164;5.400;2023-11-25T18:08:35;4.95;;;1.40;;
47103;SDS011;32853;52.164;5.400;2023-11-25T18:11:01;7.53;;;1.77;;
47103;SDS011;32853;52.164;5.400;2023-11-25T18:13:26;14.02;;;2.55;;
47103;SDS011;32853;52.164;5.400;2023-11-25T18:16:00;13.32;;;3.10;;
47103;SDS011;32853;52.164;5.400;2023-11-25T18:18:27;14.30;;;2.78;;
47103;SDS011;32853;52.164;5.400;2023-11-25T18:21:06;8.65;;;2.58;;
47103;SDS011;32853;52.164;5.400;2023-11-25T18:23:44;8.00;;;3.17;;
47103;SDS011;32853;52.164;5.400;2023-11-25T18:26:09;11.23;;;3.40;;
47103;SDS011;32853;52.164;5.400;2023-11-25T18:28:47;15.05;;;3.35;;
47103;SDS011;32853;52.164;5.400;2023-11-25T18:31:20;18.48;;;4.03;;
47103;SDS011;32853;52.164;5.400;2023-11-25T18:33:46;26.23;;;6.78;;
47103;SDS011;32853;52.164;5.400;2023-11-25T18:36:11;30.63;;;9.90;;
47103;SDS011;32853;52.164;5.400;2023-11-25T18:38:37;14.43;;;3.42;;
47103;SDS011;32853;52.164;5.400;2023-11-25T18:41:06;5.10;;;2.17;;
47103;SDS011;32853;52.164;5.400;2023-11-25T18:43:33;12.52;;;2.72;;
47103;SDS011;32853;52.164;5.400;2023-11-25T18:46:01;9.73;;;2.70;;
47103;SDS011;32853;52.164;5.400;2023-11-25T18:48:32;17.58;;;2.53;;
47103;SDS011;32853;52.164;5.400;2023-11-25T18:51:00;11.25;;;2.75;;
47103;SDS011;32853;52.164;5.400;2023-11-25T18:53:33;10.63;;;2.80;;
47103;SDS011;32853;52.164;5.400;2023-11-25T18:55:59;11.10;;;2.42;;
47103;SDS011;32853;52.164;5.400;2023-11-25T18:58:26;14.95;;;3.17;;
47103;SDS011;32853;52.164;5.400;2023-11-25T19:00:56;18.10;;;3.65;;
47103;SDS011;32853;52.164;5.400;2023-11-25T19:03:23;11.63;;;3.45;;
47103;SDS011;32853;52.164;5.400;2023-11-25T19:05:50;19.65;;;5.97;;
47103;SDS011;32853;52.164;5.400;2023-11-25T19:08:18;13.57;;;6.32;;
47103;SDS011;32853;52.164;5.400;2023-11-25T19:10:43;18.35;;;9.15;;
47103;SDS011;32853;52.164;5.400;2023-11-25T19:13:13;18.17;;;8.05;;
47103;SDS011;32853;52.164;5.400;2023-11-25T19:15:38;17.38;;;6.32;;
47103;SDS011;32853;52.164;5.400;2023-11-25T19:18:03;19.83;;;6.40;;
47103;SDS011;32853;52.164;5.400;2023-11-25T19:20:30;10.13;;;4.63;;
47103;SDS011;32853;52.164;5.400;2023-11-25T19:22:56;15.63;;;4.57;;
47103;SDS011;32853;52.164;5.400;2023-11-25T19:25:33;20.42;;;4.60;;
47103;SDS011;32853;52.164;5.400;2023-11-25T19:28:09;17.92;;;4.82;;
47103;SDS011;32853;52.164;5.400;2023-11-25T19:30:35;14.38;;;4.82;;
47103;SDS011;32853;52.164;5.400;2023-11-25T19:33:00;15.60;;;4.55;;
47103;SDS011;32853;52.164;5.400;2023-11-25T19:35:25;18.42;;;4.80;;
47103;SDS011;32853;52.164;5.400;2023-11-25T19:37:57;14.55;;;4.15;;
47103;SDS011;32853;52.164;5.400;2023-11-25T19:40:23;13.27;;;4.18;;
47103;SDS011;32853;52.164;5.400;2023-11-25T19:42:51;15.27;;;4.07;;
47103;SDS011;32853;52.164;5.400;2023-11-25T19:45:19;23.50;;;4.15;;
47103;SDS011;32853;52.164;5.400;2023-11-25T19:48:01;28.85;;;10.68;;
47103;SDS011;32853;52.164;5.400;2023-11-25T19:50:30;20.58;;;7.13;;
47103;SDS011;32853;52.164;5.400;2023-11-25T19:52:55;15.75;;;6.30;;
47103;SDS011;32853;52.164;5.400;2023-11-25T19:55:21;15.13;;;4.80;;
47103;SDS011;32853;52.164;5.400;2023-11-25T19:57:59;17.60;;;5.70;;
47103;SDS011;32853;52.164;5.400;2023-11-25T20:00:32;15.95;;;4.93;;
47103;SDS011;32853;52.164;5.400;2023-11-25T20:03:01;12.38;;;3.80;;
47103;SDS011;32853;52.164;5.400;2023-11-25T20:05:31;14.00;;;4.00;;
47103;SDS011;32853;52.164;5.400;2023-11-25T20:07:58;11.07;;;4.10;;
47103;SDS011;32853;52.164;5.400;2023-11-25T20:10:25;24.10;;;5.72;;
47103;SDS011;32853;52.164;5.400;2023-11-25T20:12:56;16.95;;;4.97;;
47103;SDS011;32853;52.164;5.400;2023-11-25T20:15:22;22.80;;;5.05;;
47103;SDS011;32853;52.164;5.400;2023-11-25T20:17:53;15.55;;;4.28;;
47103;SDS011;32853;52.164;5.400;2023-11-25T20:20:19;20.45;;;5.82;;
47103;SDS011;32853;52.164;5.400;2023-11-25T20:22:45;16.50;;;5.82;;
47103;SDS011;32853;52.164;5.400;2023-11-25T20:27:39;18.30;;;4.65;;
47103;SDS011;32853;52.164;5.400;2023-11-25T20:30:05;19.95;;;4.70;;
47103;SDS011;32853;52.164;5.400;2023-11-25T20:32:31;27.95;;;6.18;;
47103;SDS011;32853;52.164;5.400;2023-11-25T20:34:58;16.65;;;5.63;;
47103;SDS011;32853;52.164;5.400;2023-11-25T20:37:28;17.30;;;6.47;;
47103;SDS011;32853;52.164;5.400;2023-11-25T20:39:53;25.80;;;5.25;;